createdAt,value
2019-03-16T00:00:33.614Z,5.28
2019-03-16T00:03:40.342Z,5.38
2019-03-16T00:06:47.934Z,5.36
2019-03-16T00:09:54.563Z,5.39
2019-03-16T00:13:01.710Z,5.32
2019-03-16T00:16:08.374Z,5.42
2019-03-16T00:19:15.432Z,5.42
2019-03-16T00:22:21.843Z,5.58
2019-03-16T00:25:28.205Z,5.48
2019-03-16T00:28:35.771Z,5.49
2019-03-16T00:31:42.544Z,5.50
2019-03-16T00:34:49.492Z,5.45
2019-03-16T00:37:56.026Z,5.45
2019-03-16T00:41:02.761Z,5.41
2019-03-16T00:44:09.138Z,5.36
2019-03-16T00:47:15.824Z,5.36
2019-03-16T00:50:22.746Z,5.38
2019-03-16T00:53:29.592Z,5.44
2019-03-16T00:56:37.172Z,5.51
2019-03-16T00:59:43.583Z,5.49
2019-03-16T01:02:50.191Z,5.35
2019-03-16T01:05:56.588Z,5.28
2019-03-16T01:09:03.005Z,5.22
2019-03-16T01:12:10.682Z,5.21
2019-03-16T01:15:17.088Z,5.15
2019-03-16T01:18:24.022Z,5.10
2019-03-16T01:21:31.406Z,5.06
2019-03-16T01:24:38.139Z,5.18
2019-03-16T01:27:44.522Z,5.17
2019-03-16T01:30:51.323Z,5.14
2019-03-16T01:33:58.099Z,5.09
2019-03-16T01:37:04.920Z,5.11
2019-03-16T01:40:11.784Z,5.17
2019-03-16T01:43:18.340Z,5.15
2019-03-16T01:46:25.582Z,5.19
2019-03-16T01:49:32.070Z,5.28
2019-03-16T01:52:38.588Z,5.26
2019-03-16T01:55:46.306Z,5.38
2019-03-16T01:58:53.121Z,5.21
2019-03-16T02:01:59.714Z,5.23
2019-03-16T02:05:06.593Z,5.27
2019-03-16T02:08:13.745Z,5.23
2019-03-16T02:11:20.084Z,5.31
2019-03-16T02:14:26.486Z,5.30
2019-03-16T02:17:33.196Z,5.29
2019-03-16T02:20:39.957Z,5.11
2019-03-16T02:23:47.031Z,5.15
2019-03-16T02:26:53.378Z,5.19
2019-03-16T02:29:59.825Z,5.20
2019-03-16T02:33:13.340Z,5.19
2019-03-16T02:36:14.108Z,5.09
2019-03-16T02:39:20.768Z,5.13
2019-03-16T02:42:27.195Z,5.13
2019-03-16T02:45:33.753Z,4.96
2019-03-16T02:48:40.406Z,5.06
2019-03-16T02:51:46.626Z,4.96
2019-03-16T02:54:53.148Z,4.98
2019-03-16T02:57:59.576Z,5.06
2019-03-16T03:01:06.365Z,5.14
2019-03-16T03:04:13.003Z,5.23
2019-03-16T03:07:19.860Z,5.15
2019-03-16T03:10:26.454Z,5.08
2019-03-16T03:13:33.076Z,5.06
2019-03-16T03:16:39.957Z,5.03
2019-03-16T03:19:46.479Z,4.98
2019-03-16T03:22:52.977Z,5.03
2019-03-16T03:25:59.611Z,5.02
2019-03-16T03:29:06.254Z,4.98
2019-03-16T03:32:12.751Z,4.90
2019-03-16T03:35:19.450Z,4.85
2019-03-16T03:38:25.935Z,4.96
2019-03-16T03:41:33.307Z,4.92
2019-03-16T03:44:39.933Z,4.79
2019-03-16T03:47:46.604Z,4.77
2019-03-16T03:50:53.046Z,4.82
2019-03-16T03:53:59.532Z,4.91
2019-03-16T03:57:06.364Z,4.84
2019-03-16T04:00:13.582Z,4.87
2019-03-16T04:03:20.045Z,4.77
2019-03-16T04:06:26.788Z,4.81
2019-03-16T04:09:33.439Z,4.87
2019-03-16T04:12:40.533Z,4.81
2019-03-16T04:15:47.387Z,4.79
2019-03-16T04:18:54.183Z,4.87
2019-03-16T04:22:02.249Z,4.77
2019-03-16T04:25:09.111Z,4.72
2019-03-16T04:28:15.419Z,4.73
2019-03-16T04:31:22.401Z,4.71
2019-03-16T04:34:29.902Z,4.79
2019-03-16T04:37:37.931Z,4.69
2019-03-16T04:40:44.871Z,4.68
2019-03-16T04:43:51.884Z,4.63
2019-03-16T04:46:58.397Z,4.62
2019-03-16T04:50:05.243Z,4.55
2019-03-16T04:53:12.139Z,4.42
2019-03-16T04:56:19.079Z,4.40
2019-03-16T04:59:25.460Z,4.39
2019-03-16T05:02:32.400Z,4.42
2019-03-16T05:05:38.925Z,4.40
2019-03-16T05:08:45.487Z,4.29
2019-03-16T05:11:54.121Z,4.25
2019-03-16T05:15:00.717Z,4.24
2019-03-16T05:18:08.917Z,4.28
2019-03-16T05:21:17.076Z,4.32
2019-03-16T05:24:23.733Z,4.21
2019-03-16T05:27:30.221Z,4.20
2019-03-16T05:30:37.208Z,4.28
2019-03-16T05:33:43.916Z,4.26
2019-03-16T05:36:50.762Z,4.32
2019-03-16T05:39:58.038Z,4.34
2019-03-16T05:43:07.584Z,4.31
2019-03-16T05:46:14.514Z,4.35
2019-03-16T05:49:21.656Z,4.36
2019-03-16T05:52:28.412Z,4.36
2019-03-16T05:55:35.230Z,4.34
2019-03-16T05:58:41.810Z,4.36
2019-03-16T06:01:48.678Z,4.34
2019-03-16T06:04:55.406Z,4.34
2019-03-16T06:08:02.020Z,4.39
2019-03-16T06:11:08.570Z,4.44
2019-03-16T06:14:14.863Z,4.39
2019-03-16T06:17:21.348Z,4.43
2019-03-16T06:20:28.011Z,4.42
2019-03-16T06:23:34.555Z,4.44
2019-03-16T06:26:41.488Z,4.44
2019-03-16T06:29:49.133Z,4.55
2019-03-16T06:32:55.484Z,4.53
2019-03-16T06:36:03.919Z,4.53
2019-03-16T06:39:10.476Z,4.50
2019-03-16T06:42:17.094Z,4.52
2019-03-16T06:45:23.460Z,4.63
2019-03-16T06:48:30.189Z,4.71
2019-03-16T06:51:37.769Z,4.73
2019-03-16T06:54:44.198Z,4.95
2019-03-16T06:57:51.759Z,4.91
2019-03-16T07:00:58.430Z,4.99
2019-03-16T07:04:04.885Z,5.10
2019-03-16T07:07:11.469Z,5.13
2019-03-16T07:10:18.239Z,5.11
2019-03-16T07:13:25.138Z,5.08
2019-03-16T07:16:32.257Z,5.06
2019-03-16T07:19:39.243Z,5.17
2019-03-16T07:22:45.991Z,5.31
2019-03-16T07:25:53.295Z,5.45
2019-03-16T07:29:00.638Z,5.48
2019-03-16T07:32:07.269Z,5.42
2019-03-16T07:35:14.045Z,5.40
2019-03-16T07:38:22.855Z,5.55
2019-03-16T07:41:29.792Z,5.63
2019-03-16T07:44:36.488Z,5.70
2019-03-16T07:47:43.000Z,5.76
2019-03-16T07:50:50.321Z,5.85
2019-03-16T07:53:57.261Z,5.83
2019-03-16T07:57:04.433Z,5.74
2019-03-16T08:00:11.757Z,5.73
2019-03-16T08:03:18.627Z,5.78
2019-03-16T08:06:25.231Z,5.83
2019-03-16T08:09:34.066Z,5.88
2019-03-16T08:12:41.591Z,6.04
2019-03-16T08:15:48.406Z,5.97
2019-03-16T08:18:55.083Z,6.04
2019-03-16T08:22:02.538Z,6.21
2019-03-16T08:25:09.487Z,6.33
2019-03-16T08:28:16.253Z,6.33
2019-03-16T08:31:25.490Z,6.56
2019-03-16T08:34:31.895Z,6.57
2019-03-16T08:37:39.603Z,6.71
2019-03-16T08:40:46.603Z,6.73
2019-03-16T08:43:53.249Z,6.91
2019-03-16T08:46:59.976Z,7.04
2019-03-16T08:50:07.385Z,6.92
2019-03-16T08:53:14.184Z,6.76
2019-03-16T08:56:24.303Z,6.92
2019-03-16T08:59:31.714Z,6.89
2019-03-16T09:02:38.981Z,6.89
2019-03-16T09:05:45.834Z,6.93
2019-03-16T09:08:52.385Z,6.81
2019-03-16T09:11:59.536Z,6.88
2019-03-16T09:15:07.168Z,6.83
2019-03-16T09:18:13.741Z,7.05
2019-03-16T09:21:20.481Z,7.17
2019-03-16T09:24:27.037Z,7.14
2019-03-16T09:27:33.493Z,7.16
2019-03-16T09:30:40.391Z,7.27
2019-03-16T09:33:46.782Z,7.30
2019-03-16T09:36:53.378Z,7.12
2019-03-16T09:39:59.947Z,7.15
2019-03-16T09:43:06.366Z,7.24
2019-03-16T09:46:12.912Z,7.46
2019-03-16T09:49:19.374Z,7.66
2019-03-16T09:52:26.321Z,7.71
2019-03-16T09:55:35.216Z,7.80
2019-03-16T09:58:41.320Z,7.75
2019-03-16T10:01:48.374Z,7.63
2019-03-16T10:04:55.452Z,7.88
2019-03-16T10:08:02.148Z,7.90
2019-03-16T10:11:09.311Z,7.93
2019-03-16T10:14:15.964Z,8.03
2019-03-16T10:17:23.080Z,8.24
2019-03-16T10:20:29.874Z,8.28
2019-03-16T10:23:36.373Z,8.46
2019-03-16T10:26:44.783Z,8.77
2019-03-16T10:29:52.654Z,8.95
2019-03-16T10:32:59.130Z,9.10
2019-03-16T10:36:05.385Z,9.02
2019-03-16T10:39:12.871Z,9.14
2019-03-16T10:42:18.994Z,9.18
2019-03-16T10:45:25.975Z,9.22
2019-03-16T10:48:32.652Z,9.39
2019-03-16T10:51:40.150Z,9.42
2019-03-16T10:54:47.182Z,9.41
2019-03-16T10:57:53.921Z,9.33
2019-03-16T11:01:00.313Z,9.55
2019-03-16T11:04:06.902Z,9.72
2019-03-16T11:07:13.600Z,9.73
2019-03-16T11:10:21.957Z,9.96
2019-03-16T11:13:28.882Z,10.05
2019-03-16T11:16:36.527Z,10.14
2019-03-16T11:19:43.288Z,10.39
2019-03-16T11:22:50.024Z,11.01
2019-03-16T11:25:56.634Z,11.31
2019-03-16T11:29:08.840Z,11.13
2019-03-16T11:32:11.535Z,11.22
2019-03-16T11:35:18.509Z,11.16
2019-03-16T11:38:25.276Z,11.13
2019-03-16T11:41:33.422Z,10.93
2019-03-16T11:44:41.843Z,11.15
2019-03-16T11:47:48.715Z,11.08
2019-03-16T11:50:55.408Z,10.73
2019-03-16T11:54:02.215Z,10.78
2019-03-16T11:57:09.408Z,10.44
2019-03-16T12:00:15.856Z,10.15
2019-03-16T12:03:22.995Z,10.13
2019-03-16T12:06:29.476Z,9.91
2019-03-16T12:09:36.206Z,9.91
2019-03-16T12:12:43.589Z,9.88
2019-03-16T12:15:50.553Z,10.09
2019-03-16T12:18:57.380Z,10.22
2019-03-16T12:22:03.955Z,10.28
2019-03-16T12:25:10.892Z,10.34
2019-03-16T12:28:17.627Z,10.24
2019-03-16T12:31:25.602Z,10.15
2019-03-16T12:34:32.513Z,10.12
2019-03-16T12:37:39.789Z,10.21
2019-03-16T12:40:46.719Z,10.18
2019-03-16T12:43:54.398Z,10.11
2019-03-16T12:47:01.541Z,10.15
2019-03-16T12:50:08.277Z,10.16
2019-03-16T12:53:16.449Z,10.19
2019-03-16T12:56:23.562Z,10.26
2019-03-16T12:59:30.356Z,10.30
2019-03-16T13:02:36.983Z,10.18
2019-03-16T13:05:43.832Z,10.11
2019-03-16T13:08:52.510Z,10.08
2019-03-16T13:11:59.409Z,10.03
2019-03-16T13:15:07.058Z,10.09
2019-03-16T13:18:13.417Z,10.13
2019-03-16T13:21:20.483Z,10.37
2019-03-16T13:24:27.339Z,10.51
2019-03-16T13:27:33.763Z,10.68
2019-03-16T13:30:40.552Z,10.55
2019-03-16T13:33:47.174Z,10.67
2019-03-16T13:36:53.897Z,10.65
2019-03-16T13:40:00.909Z,10.59
2019-03-16T13:43:07.080Z,10.33
2019-03-16T13:46:13.440Z,10.19
2019-03-16T13:49:20.922Z,10.10
2019-03-16T13:52:27.903Z,10.04
2019-03-16T13:55:35.092Z,10.02
2019-03-16T13:58:41.941Z,9.82
2019-03-16T14:01:48.416Z,9.64
2019-03-16T14:04:59.597Z,9.65
2019-03-16T14:08:06.677Z,9.65
2019-03-16T14:11:14.294Z,9.56
2019-03-16T14:14:21.445Z,9.45
2019-03-16T14:17:28.557Z,9.48
2019-03-16T14:20:35.445Z,9.47
2019-03-16T14:23:42.755Z,9.35
2019-03-16T14:26:49.740Z,9.60
2019-03-16T14:29:56.718Z,9.83
2019-03-16T14:33:03.102Z,9.96
2019-03-16T14:36:10.021Z,10.00
2019-03-16T14:39:16.889Z,9.91
2019-03-16T14:42:23.378Z,9.69
2019-03-16T14:45:30.557Z,9.57
2019-03-16T14:48:37.710Z,9.49
2019-03-16T14:51:44.628Z,9.71
2019-03-16T14:54:51.298Z,9.54
2019-03-16T14:57:58.900Z,9.75
2019-03-16T15:01:05.605Z,9.93
2019-03-16T15:04:11.977Z,9.81
2019-03-16T15:07:18.202Z,9.47
2019-03-16T15:10:24.825Z,9.38
2019-03-16T15:13:35.181Z,9.37
2019-03-16T15:16:41.954Z,9.33
2019-03-16T15:19:49.125Z,9.43
2019-03-16T15:22:56.054Z,9.32
2019-03-16T15:26:02.538Z,9.34
2019-03-16T15:29:09.547Z,9.01
2019-03-16T15:32:16.100Z,9.09
2019-03-16T15:35:22.651Z,9.19
2019-03-16T15:38:32.764Z,9.29
2019-03-16T15:41:39.425Z,9.37
2019-03-16T15:44:46.476Z,9.27
2019-03-16T15:47:53.449Z,9.39
2019-03-16T15:51:00.317Z,9.50
2019-03-16T15:54:07.025Z,9.62
2019-03-16T15:57:13.752Z,9.38
2019-03-16T16:00:20.573Z,9.39
2019-03-16T16:03:27.105Z,9.34
2019-03-16T16:06:34.995Z,9.24
2019-03-16T16:09:41.857Z,9.17
2019-03-16T16:12:48.903Z,9.14
2019-03-16T16:15:56.727Z,9.05
2019-03-16T16:19:03.580Z,8.95
2019-03-16T16:22:11.411Z,8.86
2019-03-16T16:25:17.993Z,8.82
2019-03-16T16:28:24.934Z,8.84
2019-03-16T16:31:32.219Z,8.80
2019-03-16T16:34:38.668Z,8.75
2019-03-16T16:37:45.401Z,8.61
2019-03-16T16:40:52.426Z,8.60
2019-03-16T16:44:01.241Z,8.56
2019-03-16T16:47:10.994Z,8.38
2019-03-16T16:50:18.260Z,8.32
2019-03-16T16:53:28.539Z,8.32
2019-03-16T16:56:40.969Z,8.30
2019-03-16T16:59:50.546Z,8.25
2019-03-16T17:03:04.721Z,8.21
2019-03-16T17:06:14.156Z,8.23
2019-03-16T17:09:29.201Z,8.07
2019-03-16T17:12:39.616Z,8.10
2019-03-16T17:15:50.093Z,8.04
2019-03-16T17:18:58.195Z,8.08
2019-03-16T17:22:05.699Z,7.92
2019-03-16T17:25:15.378Z,7.84
2019-03-16T17:28:24.350Z,7.74
2019-03-16T17:31:42.095Z,7.69
2019-03-16T17:34:45.161Z,7.75
2019-03-16T17:37:55.600Z,7.70
2019-03-16T17:41:02.850Z,7.67
2019-03-16T17:44:16.668Z,7.68
2019-03-16T17:47:24.641Z,7.80
2019-03-16T17:50:33.102Z,7.67
2019-03-16T17:53:42.845Z,7.59
2019-03-16T17:56:53.455Z,7.54
2019-03-16T18:00:04.417Z,7.46
2019-03-16T18:03:14.458Z,7.45
2019-03-16T18:06:22.934Z,7.41
2019-03-16T18:09:30.774Z,7.38
2019-03-16T18:12:38.064Z,7.29
2019-03-16T18:15:44.692Z,7.40
2019-03-16T18:18:52.485Z,7.24
2019-03-16T18:22:02.936Z,7.35
2019-03-16T18:25:10.691Z,7.23
2019-03-16T18:28:20.213Z,7.23
2019-03-16T18:31:27.600Z,7.25
2019-03-16T18:34:33.960Z,7.33
2019-03-16T18:37:41.445Z,7.28
2019-03-16T18:40:48.032Z,7.34
2019-03-16T18:43:55.068Z,7.47
2019-03-16T18:47:02.171Z,7.36
2019-03-16T18:50:10.935Z,7.40
2019-03-16T18:53:17.566Z,7.40
2019-03-16T18:56:24.207Z,7.28
2019-03-16T18:59:30.786Z,7.22
2019-03-16T19:02:40.380Z,7.20
2019-03-16T19:05:49.367Z,7.29
2019-03-16T19:08:58.731Z,7.13
2019-03-16T19:12:09.825Z,7.25
2019-03-16T19:15:16.428Z,7.21
2019-03-16T19:18:22.734Z,7.07
2019-03-16T19:21:29.433Z,6.94
2019-03-16T19:24:35.843Z,7.03
2019-03-16T19:27:42.870Z,7.09
2019-03-16T19:30:49.659Z,7.07
2019-03-16T19:34:00.063Z,7.04
2019-03-16T19:37:06.586Z,7.03
2019-03-16T19:40:13.159Z,6.86
2019-03-16T19:43:23.024Z,6.93
2019-03-16T19:46:30.128Z,6.82
2019-03-16T19:49:36.888Z,6.86
2019-03-16T19:52:43.539Z,6.81
2019-03-16T19:55:50.836Z,6.86
2019-03-16T19:59:00.808Z,6.89
2019-03-16T20:02:06.995Z,6.84
2019-03-16T20:05:14.063Z,6.78
2019-03-16T20:08:21.276Z,6.82
2019-03-16T20:11:27.712Z,6.99
2019-03-16T20:14:36.164Z,6.92
2019-03-16T20:17:43.091Z,6.94
2019-03-16T20:20:50.693Z,6.89
2019-03-16T20:23:58.084Z,6.96
2019-03-16T20:27:07.106Z,6.89
2019-03-16T20:30:14.280Z,6.95
2019-03-16T20:33:20.793Z,6.93
2019-03-16T20:36:27.473Z,6.77
2019-03-16T20:39:34.355Z,6.84
2019-03-16T20:42:42.213Z,6.84
2019-03-16T20:45:49.003Z,6.75
2019-03-16T20:48:56.081Z,6.82
2019-03-16T20:52:03.211Z,6.73
2019-03-16T20:55:10.330Z,6.75
2019-03-16T20:58:18.516Z,6.74
2019-03-16T21:01:27.429Z,6.81
2019-03-16T21:04:36.701Z,6.62
2019-03-16T21:07:43.342Z,6.49
2019-03-16T21:10:50.416Z,6.58
2019-03-16T21:13:57.734Z,6.60
2019-03-16T21:17:04.621Z,6.54
2019-03-16T21:20:12.229Z,6.47
2019-03-16T21:23:19.247Z,6.51
2019-03-16T21:26:26.022Z,6.51
2019-03-16T21:29:32.795Z,6.57
2019-03-16T21:32:39.449Z,6.65
2019-03-16T21:35:46.474Z,6.46
2019-03-16T21:38:54.951Z,6.38
2019-03-16T21:42:01.552Z,6.39
2019-03-16T21:45:08.922Z,6.48
2019-03-16T21:48:16.917Z,6.47
2019-03-16T21:51:27.647Z,6.53
2019-03-16T21:54:36.050Z,6.46
2019-03-16T21:57:43.438Z,6.48
2019-03-16T22:00:50.047Z,6.60
2019-03-16T22:03:56.968Z,6.60
2019-03-16T22:07:03.602Z,6.72
2019-03-16T22:10:10.548Z,6.88
2019-03-16T22:13:17.539Z,6.79
2019-03-16T22:16:24.475Z,6.76
2019-03-16T22:19:32.015Z,6.64
2019-03-16T22:22:38.684Z,6.75
2019-03-16T22:25:45.591Z,6.66
2019-03-16T22:28:52.481Z,6.58
2019-03-16T22:31:59.700Z,6.64
2019-03-16T22:35:09.147Z,6.80
2019-03-16T22:38:18.130Z,6.81
2019-03-16T22:41:27.470Z,6.60
2019-03-16T22:44:34.460Z,6.49
2019-03-16T22:47:41.621Z,6.46
2019-03-16T22:50:48.346Z,6.69
2019-03-16T22:53:56.595Z,6.49
2019-03-16T22:57:03.435Z,6.51
2019-03-16T23:00:11.835Z,6.53
2019-03-16T23:03:20.447Z,6.46
2019-03-16T23:06:28.003Z,6.28
2019-03-16T23:09:34.746Z,6.44
2019-03-16T23:12:42.769Z,6.55
2019-03-16T23:15:49.462Z,6.44
2019-03-16T23:18:57.121Z,6.55
2019-03-16T23:22:03.791Z,6.63
2019-03-16T23:25:10.681Z,6.41
2019-03-16T23:28:17.344Z,6.29
2019-03-16T23:31:25.133Z,6.38
2019-03-16T23:34:31.835Z,6.33
2019-03-16T23:37:38.684Z,6.36
2019-03-16T23:40:46.702Z,6.13
2019-03-16T23:43:54.051Z,6.35
2019-03-16T23:47:00.609Z,6.24
2019-03-16T23:50:07.133Z,6.14
2019-03-16T23:53:13.761Z,6.36
2019-03-16T23:56:20.631Z,6.43
2019-03-16T23:59:27.383Z,6.29
